sensor_id;sensor_type;location;lat;lon;timestamp;temperature;humidity
71879;DHT22;59755;43.834;4.364;2023-02-01T11:04:10;15.80;38.60
71879;DHT22;59755;43.834;4.364;2023-02-01T11:06:47;15.40;38.70
71879;DHT22;59755;43.834;4.364;2023-02-01T11:14:17;15.00;39.10
71879;DHT22;59755;43.834;4.364;2023-02-01T11:16:47;15.40;38.60
71879;DHT22;59755;43.834;4.364;2023-02-01T11:19:14;15.90;38.20
71879;DHT22;59755;43.834;4.364;2023-02-01T11:21:41;15.70;37.80
71879;DHT22;59755;43.834;4.364;2023-02-01T11:24:11;15.40;38.40
71879;DHT22;59755;43.834;4.364;2023-02-01T11:26:43;15.50;38.10
71879;DHT22;59755;43.834;4.364;2023-02-01T11:29:13;15.60;37.60
71879;DHT22;59755;43.834;4.364;2023-02-01T11:31:42;15.40;38.30
71879;DHT22;59755;43.834;4.364;2023-02-01T11:34:14;15.40;38.40
71879;DHT22;59755;43.834;4.364;2023-02-01T11:36:40;15.70;37.80
71879;DHT22;59755;43.834;4.364;2023-02-01T11:39:14;16.00;37.10
71879;DHT22;59755;43.834;4.364;2023-02-01T11:41:43;15.80;37.40
71879;DHT22;59755;43.834;4.364;2023-02-01T11:44:19;15.90;36.90
71879;DHT22;59755;43.834;4.364;2023-02-01T11:46:45;15.90;37.20
71879;DHT22;59755;43.834;4.364;2023-02-01T11:49:21;15.70;37.80
71879;DHT22;59755;43.834;4.364;2023-02-01T11:59:29;17.20;35.90
71879;DHT22;59755;43.834;4.364;2023-02-01T12:09:42;17.80;34.80
71879;DHT22;59755;43.834;4.364;2023-02-01T12:12:21;17.70;34.70
71879;DHT22;59755;43.834;4.364;2023-02-01T12:20:20;17.70;33.80
71879;DHT22;59755;43.834;4.364;2023-02-01T12:33:29;18.00;33.30
71879;DHT22;59755;43.834;4.364;2023-02-01T12:40:43;18.10;33.40
71879;DHT22;59755;43.834;4.364;2023-02-01T12:43:13;17.80;33.70
71879;DHT22;59755;43.834;4.364;2023-02-01T12:45:57;17.80;33.60
71879;DHT22;59755;43.834;4.364;2023-02-01T12:48:31;17.70;33.90
71879;DHT22;59755;43.834;4.364;2023-02-01T12:51:07;17.30;34.10
71879;DHT22;59755;43.834;4.364;2023-02-01T12:53:45;17.20;34.60
71879;DHT22;59755;43.834;4.364;2023-02-01T12:56:14;17.70;33.70
71879;DHT22;59755;43.834;4.364;2023-02-01T12:58:43;17.60;33.60
71879;DHT22;59755;43.834;4.364;2023-02-01T13:01:25;17.50;33.90
71879;DHT22;59755;43.834;4.364;2023-02-01T13:08:56;17.40;34.10
71879;DHT22;59755;43.834;4.364;2023-02-01T13:11:25;17.30;33.80
71879;DHT22;59755;43.834;4.364;2023-02-01T13:21:37;17.20;33.60
71879;DHT22;59755;43.834;4.364;2023-02-01T13:24:04;17.30;32.90
71879;DHT22;59755;43.834;4.364;2023-02-01T13:26:30;18.20;32.20
71879;DHT22;59755;43.834;4.364;2023-02-01T13:29:02;18.80;31.20
71879;DHT22;59755;43.834;4.364;2023-02-01T13:31:47;19.20;31.00
71879;DHT22;59755;43.834;4.364;2023-02-01T13:42:36;17.60;33.30
71879;DHT22;59755;43.834;4.364;2023-02-01T13:47:53;18.20;32.60
71879;DHT22;59755;43.834;4.364;2023-02-01T13:53:02;18.40;32.20
71879;DHT22;59755;43.834;4.364;2023-02-01T13:58:38;18.40;32.60
71879;DHT22;59755;43.834;4.364;2023-02-01T14:00:45;18.10;33.00
71879;DHT22;59755;43.834;4.364;2023-02-01T14:03:12;18.00;32.90
71879;DHT22;59755;43.834;4.364;2023-02-01T14:21:20;17.70;33.50
71879;DHT22;59755;43.834;4.364;2023-02-01T14:26:19;18.30;32.90
71879;DHT22;59755;43.834;4.364;2023-02-01T14:28:49;18.50;32.60
71879;DHT22;59755;43.834;4.364;2023-02-01T14:31:29;18.30;32.90
71879;DHT22;59755;43.834;4.364;2023-02-01T14:33:57;18.10;33.00
71879;DHT22;59755;43.834;4.364;2023-02-01T14:36:24;17.80;33.10
71879;DHT22;59755;43.834;4.364;2023-02-01T14:38:50;18.00;33.10
71879;DHT22;59755;43.834;4.364;2023-02-01T14:41:29;18.40;32.70
71879;DHT22;59755;43.834;4.364;2023-02-01T14:49:12;17.30;33.70
71879;DHT22;59755;43.834;4.364;2023-02-01T14:51:37;17.20;33.40
71879;DHT22;59755;43.834;4.364;2023-02-01T14:54:03;17.10;33.60
71879;DHT22;59755;43.834;4.364;2023-02-01T14:56:29;16.90;33.90
71879;DHT22;59755;43.834;4.364;2023-02-01T14:59:11;16.80;34.00
71879;DHT22;59755;43.834;4.364;2023-02-01T15:01:38;16.40;34.30
71879;DHT22;59755;43.834;4.364;2023-02-01T15:04:17;16.30;34.20
71879;DHT22;59755;43.834;4.364;2023-02-01T15:09:30;16.70;33.70
71879;DHT22;59755;43.834;4.364;2023-02-01T15:14:29;16.60;34.40
71879;DHT22;59755;43.834;4.364;2023-02-01T15:16:55;16.40;34.80
71879;DHT22;59755;43.834;4.364;2023-02-01T15:19:22;15.90;35.50
71879;DHT22;59755;43.834;4.364;2023-02-01T15:21:49;15.60;35.50
71879;DHT22;59755;43.834;4.364;2023-02-01T15:24:19;15.30;35.70
71879;DHT22;59755;43.834;4.364;2023-02-01T15:26:45;14.90;35.90
71879;DHT22;59755;43.834;4.364;2023-02-01T15:29:12;14.70;36.60
71879;DHT22;59755;43.834;4.364;2023-02-01T15:31:45;14.50;36.90
71879;DHT22;59755;43.834;4.364;2023-02-01T15:34:12;14.30;37.00
71879;DHT22;59755;43.834;4.364;2023-02-01T15:36:37;14.30;37.10
71879;DHT22;59755;43.834;4.364;2023-02-01T15:41:48;13.90;37.30
71879;DHT22;59755;43.834;4.364;2023-02-01T15:44:17;13.70;37.50
71879;DHT22;59755;43.834;4.364;2023-02-01T15:46:48;13.60;37.70
71879;DHT22;59755;43.834;4.364;2023-02-01T15:49:23;13.50;37.90
71879;DHT22;59755;43.834;4.364;2023-02-01T15:51:49;13.40;37.90
71879;DHT22;59755;43.834;4.364;2023-02-01T15:54:19;13.30;38.50
71879;DHT22;59755;43.834;4.364;2023-02-01T15:56:49;13.30;38.50
71879;DHT22;59755;43.834;4.364;2023-02-01T15:59:19;13.30;38.50
71879;DHT22;59755;43.834;4.364;2023-02-01T16:01:46;13.20;38.70
71879;DHT22;59755;43.834;4.364;2023-02-01T16:04:19;13.10;38.80
71879;DHT22;59755;43.834;4.364;2023-02-01T16:06:49;13.00;38.80
71879;DHT22;59755;43.834;4.364;2023-02-01T16:09:16;12.90;39.00
71879;DHT22;59755;43.834;4.364;2023-02-01T16:14:17;12.90;39.30
71879;DHT22;59755;43.834;4.364;2023-02-01T16:16:42;12.70;39.50
71879;DHT22;59755;43.834;4.364;2023-02-01T16:19:08;12.60;39.90
71879;DHT22;59755;43.834;4.364;2023-02-01T16:21:33;12.50;40.00
71879;DHT22;59755;43.834;4.364;2023-02-01T16:23:59;12.50;40.20
71879;DHT22;59755;43.834;4.364;2023-02-01T16:26:29;12.40;40.40
71879;DHT22;59755;43.834;4.364;2023-02-01T16:28:55;12.40;40.50
71879;DHT22;59755;43.834;4.364;2023-02-01T16:31:21;12.30;40.60
71879;DHT22;59755;43.834;4.364;2023-02-01T16:33:49;12.30;40.90
71879;DHT22;59755;43.834;4.364;2023-02-01T16:36:15;12.20;40.90
71879;DHT22;59755;43.834;4.364;2023-02-01T16:38:41;12.20;41.40
71879;DHT22;59755;43.834;4.364;2023-02-01T16:41:09;12.10;41.30
71879;DHT22;59755;43.834;4.364;2023-02-01T16:43:35;12.00;41.50
71879;DHT22;59755;43.834;4.364;2023-02-01T16:46:01;12.00;41.70
71879;DHT22;59755;43.834;4.364;2023-02-01T16:48:33;12.00;41.90
71879;DHT22;59755;43.834;4.364;2023-02-01T16:51:10;11.90;42.00
71879;DHT22;59755;43.834;4.364;2023-02-01T16:53:36;11.90;42.00
71879;DHT22;59755;43.834;4.364;2023-02-01T16:56:07;11.80;42.20
71879;DHT22;59755;43.834;4.364;2023-02-01T16:58:34;11.70;42.60
71879;DHT22;59755;43.834;4.364;2023-02-01T17:01:00;11.70;42.80
71879;DHT22;59755;43.834;4.364;2023-02-01T17:03:25;11.60;42.80
71879;DHT22;59755;43.834;4.364;2023-02-01T17:05:52;11.60;42.90
71879;DHT22;59755;43.834;4.364;2023-02-01T17:08:19;11.60;43.00
71879;DHT22;59755;43.834;4.364;2023-02-01T17:10:47;11.50;43.20
71879;DHT22;59755;43.834;4.364;2023-02-01T17:13:13;11.50;43.30
71879;DHT22;59755;43.834;4.364;2023-02-01T17:15:39;11.40;43.50
71879;DHT22;59755;43.834;4.364;2023-02-01T17:18:05;11.40;43.50
71879;DHT22;59755;43.834;4.364;2023-02-01T17:20:31;11.30;43.70
71879;DHT22;59755;43.834;4.364;2023-02-01T17:22:57;11.20;43.80
71879;DHT22;59755;43.834;4.364;2023-02-01T17:25:22;11.20;43.80
71879;DHT22;59755;43.834;4.364;2023-02-01T17:27:49;11.10;44.00
71879;DHT22;59755;43.834;4.364;2023-02-01T17:30:15;11.10;44.00
71879;DHT22;59755;43.834;4.364;2023-02-01T17:32:41;11.10;44.00
71879;DHT22;59755;43.834;4.364;2023-02-01T17:35:20;11.10;44.10
71879;DHT22;59755;43.834;4.364;2023-02-01T17:37:47;11.00;44.20
71879;DHT22;59755;43.834;4.364;2023-02-01T17:40:13;10.90;44.40
71879;DHT22;59755;43.834;4.364;2023-02-01T17:42:39;10.90;44.60
71879;DHT22;59755;43.834;4.364;2023-02-01T17:47:49;10.80;44.80
71879;DHT22;59755;43.834;4.364;2023-02-01T17:50:15;10.80;44.90
71879;DHT22;59755;43.834;4.364;2023-02-01T17:52:40;10.80;45.10
71879;DHT22;59755;43.834;4.364;2023-02-01T17:55:19;10.80;45.10
71879;DHT22;59755;43.834;4.364;2023-02-01T17:57:47;10.70;45.10
71879;DHT22;59755;43.834;4.364;2023-02-01T18:00:13;10.70;45.20
71879;DHT22;59755;43.834;4.364;2023-02-01T18:02:39;10.60;45.30
71879;DHT22;59755;43.834;4.364;2023-02-01T18:07:36;10.50;45.40
71879;DHT22;59755;43.834;4.364;2023-02-01T18:10:02;10.50;45.50
71879;DHT22;59755;43.834;4.364;2023-02-01T18:12:27;10.40;45.50
71879;DHT22;59755;43.834;4.364;2023-02-01T18:14:53;10.40;45.50
71879;DHT22;59755;43.834;4.364;2023-02-01T18:17:18;10.30;45.70
71879;DHT22;59755;43.834;4.364;2023-02-01T18:19:44;10.30;45.80
71879;DHT22;59755;43.834;4.364;2023-02-01T18:22:16;10.30;45.70
71879;DHT22;59755;43.834;4.364;2023-02-01T18:24:43;10.30;45.70
71879;DHT22;59755;43.834;4.364;2023-02-01T18:27:08;10.30;46.00
71879;DHT22;59755;43.834;4.364;2023-02-01T18:29:34;10.20;46.00
71879;DHT22;59755;43.834;4.364;2023-02-01T18:31:59;10.20;46.20
71879;DHT22;59755;43.834;4.364;2023-02-01T18:34:26;10.20;46.10
71879;DHT22;59755;43.834;4.364;2023-02-01T18:36:53;10.20;46.20
71879;DHT22;59755;43.834;4.364;2023-02-01T18:39:18;10.20;46.30
71879;DHT22;59755;43.834;4.364;2023-02-01T18:41:47;10.10;46.40
71879;DHT22;59755;43.834;4.364;2023-02-01T18:44:14;10.10;46.50
71879;DHT22;59755;43.834;4.364;2023-02-01T18:46:40;10.10;46.60
71879;DHT22;59755;43.834;4.364;2023-02-01T18:49:05;10.10;46.90
71879;DHT22;59755;43.834;4.364;2023-02-01T18:51:31;10.00;47.00
71879;DHT22;59755;43.834;4.364;2023-02-01T18:53:56;10.00;47.00
71879;DHT22;59755;43.834;4.364;2023-02-01T18:56:22;10.00;46.90
71879;DHT22;59755;43.834;4.364;2023-02-01T18:58:48;10.00;47.00
71879;DHT22;59755;43.834;4.364;2023-02-01T19:01:18;10.00;47.00
71879;DHT22;59755;43.834;4.364;2023-02-01T19:03:46;9.90;47.30
71879;DHT22;59755;43.834;4.364;2023-02-01T19:06:12;9.90;47.30
71879;DHT22;59755;43.834;4.364;2023-02-01T19:08:38;9.90;47.30
71879;DHT22;59755;43.834;4.364;2023-02-01T19:11:07;9.90;47.70
71879;DHT22;59755;43.834;4.364;2023-02-01T19:13:34;9.80;47.50
71879;DHT22;59755;43.834;4.364;2023-02-01T19:16:04;9.80;47.60
71879;DHT22;59755;43.834;4.364;2023-02-01T19:18:30;9.80;47.70
71879;DHT22;59755;43.834;4.364;2023-02-01T19:21:00;9.90;47.70
71879;DHT22;59755;43.834;4.364;2023-02-01T19:23:26;9.80;48.00
71879;DHT22;59755;43.834;4.364;2023-02-01T19:25:52;9.70;48.10
71879;DHT22;59755;43.834;4.364;2023-02-01T19:28:17;9.70;48.20
71879;DHT22;59755;43.834;4.364;2023-02-01T19:30:43;9.60;48.40
71879;DHT22;59755;43.834;4.364;2023-02-01T19:33:09;9.60;48.50
71879;DHT22;59755;43.834;4.364;2023-02-01T19:35:34;9.60;48.70
71879;DHT22;59755;43.834;4.364;2023-02-01T19:38:00;9.60;48.50
71879;DHT22;59755;43.834;4.364;2023-02-01T19:40:26;9.60;48.70
71879;DHT22;59755;43.834;4.364;2023-02-01T19:42:51;9.60;48.80
71879;DHT22;59755;43.834;4.364;2023-02-01T19:45:17;9.60;48.80
71879;DHT22;59755;43.834;4.364;2023-02-01T19:47:43;9.50;48.90
71879;DHT22;59755;43.834;4.364;2023-02-01T19:50:09;9.50;49.10
71879;DHT22;59755;43.834;4.364;2023-02-01T19:52:35;9.50;49.00
71879;DHT22;59755;43.834;4.364;2023-02-01T19:55:02;9.50;49.20
71879;DHT22;59755;43.834;4.364;2023-02-01T19:57:28;9.40;49.40
71879;DHT22;59755;43.834;4.364;2023-02-01T19:59:54;9.40;49.40
71879;DHT22;59755;43.834;4.364;2023-02-01T20:02:19;9.30;49.40
71879;DHT22;59755;43.834;4.364;2023-02-01T20:04:45;9.30;49.50
71879;DHT22;59755;43.834;4.364;2023-02-01T20:07:11;9.30;49.30
71879;DHT22;59755;43.834;4.364;2023-02-01T20:09:37;9.30;49.20
71879;DHT22;59755;43.834;4.364;2023-02-01T20:12:03;9.40;48.90
71879;DHT22;59755;43.834;4.364;2023-02-01T20:14:29;9.30;49.00
71879;DHT22;59755;43.834;4.364;2023-02-01T20:16:55;9.30;49.30
71879;DHT22;59755;43.834;4.364;2023-02-01T20:19:20;9.30;49.00
71879;DHT22;59755;43.834;4.364;2023-02-01T20:21:46;9.20;49.20
71879;DHT22;59755;43.834;4.364;2023-02-01T20:24:13;9.20;49.20
71879;DHT22;59755;43.834;4.364;2023-02-01T20:26:39;9.20;49.10
71879;DHT22;59755;43.834;4.364;2023-02-01T20:29:05;9.20;49.20
71879;DHT22;59755;43.834;4.364;2023-02-01T20:31:31;9.10;49.40
71879;DHT22;59755;43.834;4.364;2023-02-01T20:33:57;9.10;49.40
71879;DHT22;59755;43.834;4.364;2023-02-01T20:36:24;9.10;49.60
71879;DHT22;59755;43.834;4.364;2023-02-01T20:38:51;9.00;49.70
71879;DHT22;59755;43.834;4.364;2023-02-01T20:41:16;8.90;49.90
71879;DHT22;59755;43.834;4.364;2023-02-01T20:43:42;8.90;50.10
71879;DHT22;59755;43.834;4.364;2023-02-01T20:46:08;8.90;50.10
71879;DHT22;59755;43.834;4.364;2023-02-01T20:48:34;8.80;50.10
71879;DHT22;59755;43.834;4.364;2023-02-01T20:51:00;8.90;50.20
71879;DHT22;59755;43.834;4.364;2023-02-01T20:53:25;8.80;50.20
71879;DHT22;59755;43.834;4.364;2023-02-01T20:55:54;8.80;50.40
71879;DHT22;59755;43.834;4.364;2023-02-01T20:58:20;8.80;50.30
71879;DHT22;59755;43.834;4.364;2023-02-01T21:00:46;8.70;50.10
71879;DHT22;59755;43.834;4.364;2023-02-01T21:03:13;8.70;50.20
71879;DHT22;59755;43.834;4.364;2023-02-01T21:05:38;8.70;50.20
71879;DHT22;59755;43.834;4.364;2023-02-01T21:08:11;8.70;50.00
71879;DHT22;59755;43.834;4.364;2023-02-01T21:10:37;8.80;50.00
71879;DHT22;59755;43.834;4.364;2023-02-01T21:13:03;8.70;50.10
71879;DHT22;59755;43.834;4.364;2023-02-01T21:15:29;8.80;49.90
71879;DHT22;59755;43.834;4.364;2023-02-01T21:17:55;8.80;49.80
71879;DHT22;59755;43.834;4.364;2023-02-01T21:20:20;8.70;49.80
71879;DHT22;59755;43.834;4.364;2023-02-01T21:22:46;8.70;49.80
71879;DHT22;59755;43.834;4.364;2023-02-01T21:25:12;8.70;50.00
71879;DHT22;59755;43.834;4.364;2023-02-01T21:27:37;8.60;50.00
71879;DHT22;59755;43.834;4.364;2023-02-01T21:30:03;8.60;50.10
71879;DHT22;59755;43.834;4.364;2023-02-01T21:32:30;8.60;50.00
71879;DHT22;59755;43.834;4.364;2023-02-01T21:34:55;8.50;50.20
71879;DHT22;59755;43.834;4.364;2023-02-01T21:37:22;8.50;50.10
71879;DHT22;59755;43.834;4.364;2023-02-01T21:39:50;8.50;50.20
71879;DHT22;59755;43.834;4.364;2023-02-01T21:42:16;8.50;50.30
71879;DHT22;59755;43.834;4.364;2023-02-01T21:44:43;8.40;50.30
71879;DHT22;59755;43.834;4.364;2023-02-01T21:47:12;8.50;50.30
71879;DHT22;59755;43.834;4.364;2023-02-01T21:49:37;8.40;50.20
71879;DHT22;59755;43.834;4.364;2023-02-01T21:52:03;8.40;50.20
71879;DHT22;59755;43.834;4.364;2023-02-01T21:54:29;8.40;50.10
71879;DHT22;59755;43.834;4.364;2023-02-01T21:56:54;8.40;50.40
71879;DHT22;59755;43.834;4.364;2023-02-01T21:59:20;8.40;50.40
71879;DHT22;59755;43.834;4.364;2023-02-01T22:01:45;8.40;50.30
71879;DHT22;59755;43.834;4.364;2023-02-01T22:04:11;8.40;50.40
71879;DHT22;59755;43.834;4.364;2023-02-01T22:06:38;8.40;50.40
71879;DHT22;59755;43.834;4.364;2023-02-01T22:09:05;8.30;50.30
71879;DHT22;59755;43.834;4.364;2023-02-01T22:11:31;8.30;50.40
71879;DHT22;59755;43.834;4.364;2023-02-01T22:13:57;8.30;50.40
71879;DHT22;59755;43.834;4.364;2023-02-01T22:16:22;8.30;50.50
71879;DHT22;59755;43.834;4.364;2023-02-01T22:18:52;8.20;50.60
71879;DHT22;59755;43.834;4.364;2023-02-01T22:21:18;8.30;50.40
71879;DHT22;59755;43.834;4.364;2023-02-01T22:23:44;8.30;50.30
71879;DHT22;59755;43.834;4.364;2023-02-01T22:26:11;8.30;50.50
71879;DHT22;59755;43.834;4.364;2023-02-01T22:28:37;8.30;50.50
71879;DHT22;59755;43.834;4.364;2023-02-01T22:31:03;8.30;50.30
71879;DHT22;59755;43.834;4.364;2023-02-01T22:33:29;8.30;50.20
71879;DHT22;59755;43.834;4.364;2023-02-01T22:35:55;8.30;50.30
71879;DHT22;59755;43.834;4.364;2023-02-01T22:38:21;8.40;50.50
71879;DHT22;59755;43.834;4.364;2023-02-01T22:40:56;8.30;50.30
71879;DHT22;59755;43.834;4.364;2023-02-01T22:43:22;8.30;50.50
71879;DHT22;59755;43.834;4.364;2023-02-01T22:45:47;8.20;50.40
71879;DHT22;59755;43.834;4.364;2023-02-01T22:48:13;8.20;50.60
71879;DHT22;59755;43.834;4.364;2023-02-01T22:50:39;8.30;50.60
71879;DHT22;59755;43.834;4.364;2023-02-01T22:53:04;8.30;50.50
71879;DHT22;59755;43.834;4.364;2023-02-01T22:55:35;8.30;50.40
71879;DHT22;59755;43.834;4.364;2023-02-01T22:58:01;8.20;50.20
71879;DHT22;59755;43.834;4.364;2023-02-01T23:00:27;8.30;50.30
71879;DHT22;59755;43.834;4.364;2023-02-01T23:02:52;8.20;50.10
71879;DHT22;59755;43.834;4.364;2023-02-01T23:05:18;8.30;50.20
71879;DHT22;59755;43.834;4.364;2023-02-01T23:07:45;8.30;50.20
71879;DHT22;59755;43.834;4.364;2023-02-01T23:10:10;8.20;50.20
71879;DHT22;59755;43.834;4.364;2023-02-01T23:12:37;8.20;50.40
71879;DHT22;59755;43.834;4.364;2023-02-01T23:15:02;8.20;50.30
71879;DHT22;59755;43.834;4.364;2023-02-01T23:17:32;8.20;50.40
71879;DHT22;59755;43.834;4.364;2023-02-01T23:19:57;8.20;50.30
71879;DHT22;59755;43.834;4.364;2023-02-01T23:22:23;8.20;50.30
71879;DHT22;59755;43.834;4.364;2023-02-01T23:24:49;8.20;50.50
71879;DHT22;59755;43.834;4.364;2023-02-01T23:27:15;8.10;50.40
71879;DHT22;59755;43.834;4.364;2023-02-01T23:29:40;8.10;50.40
71879;DHT22;59755;43.834;4.364;2023-02-01T23:32:06;8.10;50.60
71879;DHT22;59755;43.834;4.364;2023-02-01T23:34:32;8.10;50.60
71879;DHT22;59755;43.834;4.364;2023-02-01T23:36:57;8.10;50.70
71879;DHT22;59755;43.834;4.364;2023-02-01T23:39:23;8.10;50.50
71879;DHT22;59755;43.834;4.364;2023-02-01T23:41:49;8.10;50.40
71879;DHT22;59755;43.834;4.364;2023-02-01T23:44:15;8.00;50.70
71879;DHT22;59755;43.834;4.364;2023-02-01T23:46:41;8.00;50.60
71879;DHT22;59755;43.834;4.364;2023-02-01T23:49:12;8.00;50.60
71879;DHT22;59755;43.834;4.364;2023-02-01T23:51:38;8.00;50.60
71879;DHT22;59755;43.834;4.364;2023-02-01T23:54:04;8.00;50.50
71879;DHT22;59755;43.834;4.364;2023-02-01T23:56:31;8.10;50.60
71879;DHT22;59755;43.834;4.364;2023-02-01T23:58:58;8.00;50.60
